Airfield :
LOGIN :

Register | Disclaimer

   EN    FR    IT 

 










Legend :    VFR   Marginal VFR   IFR   Intensive IFR   Very Intensive IFR
Visi :
Ceiling :
>= 8 km
>= 3000ft
5 to 8 km
1000 to 3000 ft
1500m to 5 km
500 to 1000 ft
800 to 1500m
200 to 500 ft
< 800m
< 200 ft
Symbols :   Thunderstorms  Fog  Heavy snow  Heavy precipitations  Wind > 20 kt
SIGMETs :     Misc.  Thunderstorms  Icing  Turbulence  Mountain Waves  Volcanic Ashes






- Airport Elevation : 87 ft
- IATA code : FSC


LFKF - Figari

CURRENT METAR :
  • 270900Z AUTO 27017G27KT 9999 FEW022 SCT035 BKN043 16/11 Q1012 TEMPO FEW030TCU

EXPIRED METARs :
  • 270800Z AUTO 27018G29KT 9999 FEW023 SCT038 BKN049 17/09 Q1011 NOSIG
  • 270730Z AUTO 27017KT 9999 FEW026 16/09 Q1011 BECMG 27015G25KT
  • 270700Z AUTO 26017KT 230V290 9999 FEW038/// BKN047/// BKN058/// ///TCU 15/09 Q1011 BECMG 27015G25KT FEW040 SCT080
  • 270630Z AUTO 27013KT 220V300 9999 FEW020 SCT048 15/08 Q1011 BECMG 27015G25KT
  • 270600Z AUTO 27016G26KT 9999 FEW039 15/08 Q1010 NOSIG

TAF TAF LFKF
Valid from the 27 at 09:00 until the 28 at 09:00 UTC


270800Z 2709/2809 28015G25KT 9999 FEW030 BKN050
TEMPO 2709/2710 FEW030TCU
TEMPO 2709/2712 28020G30KT FEW030TCU
BECMG 2715/2716 28010KT



MET'MAP, your aeronautical weather chart ! - Copyright ORBIFLY December 2007 - Disclaimer

ORBIFLY MET'MAP TEAM :

Programming & Development : Alexandra Zaïnal
Concept & original design : Baudouin d'Aumeries
Assistance for programming : Marc-Olivier Méhu
Technical & hardware support : Manuel Goepfert

Contact : metmap@orbifly.com




SOURCES & CREDITS :

   NOAA